Dufur, Oregon
Current Conditions -  °F | °C
As of 9:37 AM on Friday 19 Dec 2014 (Local Time) from KDLS Reporting Station
Haze Haze  
Wind Chill: 39°   Ceiling: 700
Heat Index: 39°   Visibility: 3mi
Dew Point: 38°   Wind: 3mph
Humidity: 96%   Direction: 140°SE
Pressure: 30"   Gusts: NA
Location:  45.45°N, 121.13°W
Report Text: KDLS 191737Z AUTO 14003KT 3SM BR BKN007 BKN055 OVC070 04/03 A3000 RMK AO2 RAE21 P0001 T00390033
Loading
Personal Weather Stations






























Interactive Weather Map New forecast layout! Learn more

10-Day Weather Forecast

Advertisements
Track Severe Weather on mobile